Weather History for Jackson, MS

Change the Weather History Date:

Tuesday, April 17, 2012

  Actual Average Record
Temperature  
Mean Temperature 61 °F 64 °F  
Max Temperature 65 °F 76 °F 91 °F (1925)
Min Temperature 56 °F 52 °F 37 °F (1999)
Degree Days  
Heating Degree Days 4 3  
Month to date heating degree days 15 80  
Since 1 July heating degree days 1654 2350  
Cooling Degree Days 0 3  
Month to date cooling degree days 54 36  
Year to date cooling degree days 197 73  
Growing Degree Days 10 (Base 50)    
Moisture  
Dew Point 59 °F    
Average Humidity 92    
Maximum Humidity 100    
Minimum Humidity 84    
Precipitation  
Precipitation 2.33 in 0.16 in 4.00 in (1900)
Month to date precipitation 4.54 3.01  
Year to date precipitation 23.90 17.78  
Sea Level Pressure  
Sea Level Pressure 30.16 in    
Wind  
Wind Speed 11 mph (NNE)    
Max Wind Speed 26 mph    
Max Gust Speed 37 mph    
Visibility 4 miles    
Events Rain    
T = Trace of Precipitation, MM = Missing Value Source: NWS Daily Summary

Daily Weather History Graph

Daily Weather History Graph

Search for Another Location

Airport:

Trip Planner

Search our weather history database for the weather conditions in past years. The results will help you decide how hot, cold, wet, or windy it might be!

Date:

Astronomy

Apr. 17, 2012 Rise Set
Actual Time 6:28 AM CDT 7:31 PM CDT
Civil Twilight 6:02 AM CDT 7:57 PM CDT
Nautical Twilight 5:32 AM CDT 8:27 PM CDT
Astronomical Twilight 5:02 AM CDT 8:58 PM CDT
Moon 4:14 AM CDT (4/17) 4:34 PM CDT (4/17)
Length of Visible Light 13h 54m
Length of Day
13h 03m
Waning Crescent, 12% of the Moon is Illuminated
Apr 17
Waning Crescent
Apr 21
New
Apr 29
First Quarter
May 5
Full
May 12
Last Quarter

Hourly Weather History & Observations

Time (CDT) Temp. Dew Point Humidity Pressure Visibility Wind Dir Wind Speed Gust Speed Precip Events Conditions
12:54 AM 64.9 °F 62.1 °F 90% 30.14 in 10.0 mi NNE 3.5 mph - N/A   Overcast
1:54 AM 64.9 °F 62.1 °F 90% 30.13 in 9.0 mi North 4.6 mph - N/A   Overcast
2:15 AM 64.4 °F 62.6 °F 94% 30.14 in 1.8 mi North 3.5 mph - 0.02 in Rain Heavy Rain
2:29 AM 64.4 °F 62.6 °F 94% 30.13 in 2.0 mi NW 4.6 mph - 0.18 in Rain Light Rain
2:42 AM 64.4 °F 62.6 °F 94% 30.14 in 1.2 mi Calm Calm - 0.24 in Rain Heavy Rain
2:49 AM 64.4 °F 62.6 °F 94% 30.14 in 3.0 mi NNE 5.8 mph - 0.27 in Rain Light Rain
2:54 AM 64.0 °F 63.0 °F 96% 30.14 in 3.0 mi Calm Calm - 0.27 in Rain Rain
2:58 AM 64.4 °F 62.6 °F 94% 30.15 in 1.8 mi Calm Calm - 0.01 in Rain Heavy Rain
3:02 AM 64.4 °F 62.6 °F 94% 30.15 in 0.8 mi Calm Calm - 0.04 in Rain Heavy Rain
3:14 AM 64.4 °F 62.6 °F 94% 30.14 in 1.0 mi NNE 4.6 mph - 0.24 in Rain Heavy Rain
3:19 AM 64.4 °F 62.6 °F 94% 30.14 in 2.0 mi NE 6.9 mph - 0.27 in Rain Rain
3:27 AM 64.4 °F 62.6 °F 94% 30.13 in 3.0 mi NNE 6.9 mph - 0.28 in Rain Light Rain
3:54 AM 64.0 °F 63.0 °F 96% 30.11 in 5.0 mi NE 6.9 mph - 0.30 in Rain Light Rain
4:14 AM 64.4 °F 62.6 °F 94% 30.11 in 10.0 mi NE 8.1 mph - 0.01 in Rain Light Rain
4:54 AM 64.0 °F 63.0 °F 96% 30.12 in 9.0 mi NNE 6.9 mph - 0.01 in   Overcast
5:41 AM 64.4 °F 62.6 °F 94% 30.12 in 10.0 mi NNE 11.5 mph - N/A   Overcast
6:54 AM 63.0 °F 62.1 °F 97% 30.12 in 3.0 mi NNE 12.7 mph - 0.00 in   Overcast
7:32 AM 62.6 °F 60.8 °F 94% 30.13 in 7.0 mi NNE 9.2 mph - 0.00 in   Overcast
7:54 AM 63.0 °F 61.0 °F 93% 30.13 in 9.0 mi NE 5.8 mph - 0.00 in   Overcast
8:13 AM 62.6 °F 60.8 °F 94% 30.14 in 1.8 mi NE 8.1 mph - 0.02 in Rain Heavy Rain
8:27 AM 62.6 °F 60.8 °F 94% 30.14 in 2.5 mi North 6.9 mph - 0.07 in Rain Rain
8:52 AM 62.6 °F 60.8 °F 94% 30.16 in 1.5 mi North 5.8 mph - 0.15 in Rain Rain
8:54 AM 63.0 °F 61.0 °F 93% 30.15 in 1.5 mi North 6.9 mph - 0.15 in Rain Rain
9:05 AM 62.6 °F 60.8 °F 94% 30.16 in 2.0 mi NE 5.8 mph - 0.04 in Rain Rain
9:17 AM 62.6 °F 60.8 °F 94% 30.17 in 1.8 mi NE 3.5 mph - 0.07 in Rain Rain
9:28 AM 62.6 °F 60.8 °F 94% 30.17 in 2.0 mi NNE 4.6 mph - 0.11 in Rain Rain
9:35 AM 62.6 °F 60.8 °F 94% 30.17 in 2.5 mi NNE 5.8 mph - 0.13 in Rain Rain
9:47 AM 62.6 °F 60.8 °F 94% 30.17 in 4.0 mi NNE 6.9 mph - 0.15 in Rain Light Rain
9:54 AM 63.0 °F 61.0 °F 93% 30.16 in 4.0 mi NNE 9.2 mph - 0.15 in Rain Light Rain
10:22 AM 62.6 °F 60.8 °F 94% 30.17 in 6.0 mi NNE 10.4 mph - 0.03 in Rain Light Rain
10:52 AM 62.6 °F 60.8 °F 94% 30.18 in 2.0 mi NNE 10.4 mph - 0.07 in Rain Rain
10:54 AM 63.0 °F 61.0 °F 93% 30.17 in 2.0 mi North 9.2 mph - 0.08 in Rain Heavy Rain
10:59 AM 62.6 °F 60.8 °F 94% 30.18 in 1.8 mi NNE 11.5 mph - 0.02 in Rain Rain
11:07 AM 62.6 °F 60.8 °F 94% 30.18 in 2.5 mi NNE 11.5 mph - 0.04 in Rain Rain
11:18 AM 62.6 °F 60.8 °F 94% 30.18 in 1.5 mi NNE 12.7 mph - 0.08 in Rain Heavy Rain
11:36 AM 62.6 °F 60.8 °F 94% 30.18 in 1.5 mi NNE 12.7 mph - 0.18 in Rain Heavy Rain
11:54 AM 62.1 °F 60.1 °F 93% 30.17 in 2.0 mi NNE 10.4 mph 19.6 mph 0.25 in Rain Rain
12:02 PM 62.6 °F 60.8 °F 94% 30.19 in 1.8 mi North 12.7 mph - 0.04 in Rain Rain
12:54 PM 61.0 °F 60.1 °F 97% 30.18 in 1.0 mi North 18.4 mph 23.0 mph 0.28 in Rain Heavy Rain
12:59 PM 60.8 °F 59.0 °F 94% 30.18 in 0.8 mi North 24.2 mph 28.8 mph 0.05 in Rain Heavy Rain
1:07 PM 60.8 °F 57.2 °F 88% 30.18 in 0.8 mi NNW 19.6 mph 31.1 mph 0.13 in Rain Heavy Rain
1:15 PM 59.0 °F 57.2 °F 94% 30.19 in 1.5 mi NNW 18.4 mph 31.1 mph 0.19 in Rain Rain
1:33 PM 59.0 °F 57.2 °F 94% 30.18 in 2.0 mi NNW 13.8 mph 21.9 mph 0.24 in Rain Rain
1:41 PM 59.0 °F 57.2 °F 94% 30.19 in 1.8 mi North 16.1 mph 21.9 mph 0.27 in Rain Heavy Rain
1:54 PM 59.0 °F 57.0 °F 93% 30.19 in 1.5 mi North 18.4 mph 26.5 mph 0.33 in Rain Heavy Rain
2:08 PM 59.0 °F 57.2 °F 94% 30.18 in 0.8 mi North 20.7 mph 27.6 mph 0.12 in Rain Heavy Rain
2:14 PM 59.0 °F 57.2 °F 94% 30.18 in 1.0 mi North 20.7 mph 27.6 mph 0.19 in Rain Heavy Rain
2:54 PM 60.1 °F 55.9 °F 86% 30.17 in 2.0 mi NNE 21.9 mph 36.8 mph 0.37 in Rain Rain
3:10 PM 59.0 °F 55.4 °F 88% 30.17 in 3.0 mi NNE 18.4 mph 25.3 mph 0.03 in Rain Light Rain
3:48 PM 60.8 °F 57.2 °F 88% 30.18 in 3.0 mi North 12.7 mph 21.9 mph 0.05 in Rain Rain
3:54 PM 61.0 °F 57.9 °F 90% 30.17 in 2.5 mi North 16.1 mph 20.7 mph 0.07 in Rain Rain
4:02 PM 60.8 °F 57.2 °F 88% 30.18 in 3.0 mi North 17.3 mph 23.0 mph 0.01 in Rain Rain
4:06 PM 60.8 °F 57.2 °F 88% 30.18 in 3.0 mi North 17.3 mph 25.3 mph 0.02 in Rain Rain
4:49 PM 59.0 °F 55.4 °F 88% 30.19 in 5.0 mi NE 12.7 mph 21.9 mph 0.06 in Rain Light Rain
4:54 PM 59.0 °F 55.9 °F 90% 30.19 in 6.0 mi NE 10.4 mph 21.9 mph 0.07 in Rain Light Rain
5:54 PM 59.0 °F 54.0 °F 83% 30.13 in 10.0 mi ENE 13.8 mph 28.8 mph 0.00 in   Overcast
6:54 PM 57.9 °F 53.1 °F 84% 30.11 in 10.0 mi ENE 10.4 mph 18.4 mph N/A   Scattered Clouds
7:42 PM 57.2 °F 53.6 °F 88% 30.15 in 10.0 mi North 12.7 mph 19.6 mph N/A   Overcast
7:54 PM 57.9 °F 53.1 °F 84% 30.16 in 10.0 mi NNW 8.1 mph - N/A   Overcast
8:54 PM 57.9 °F 53.1 °F 84% 30.18 in 10.0 mi NNW 9.2 mph - N/A   Overcast
9:54 PM 57.9 °F 53.1 °F 84% 30.17 in 10.0 mi North 12.7 mph - N/A   Overcast
10:15 PM 57.2 °F 53.6 °F 88% 30.17 in 10.0 mi North 11.5 mph - N/A   Scattered Clouds
10:54 PM 57.0 °F 53.1 °F 87% 30.17 in 10.0 mi North 12.7 mph - N/A   Scattered Clouds
11:40 PM 57.2 °F 53.6 °F 88% 30.16 in 10.0 mi North 12.7 mph 19.6 mph N/A   Mostly Cloudy
11:54 PM 57.0 °F 53.1 °F 87% 30.16 in 10.0 mi North 12.7 mph - N/A   Mostly Cloudy